Time;durP1;ratioP1;P1;durP2;ratioP2;P2;SDS_P1;SDS_P2;PMS_P1;PMS_P2;Temp;Humidity;BMP_temperature;BMP_pressure;BME280_temperature;BME280_humidity;BME280_pressure;Samples;Min_cycle;Max_cycle;Signal;HPM_P1;HPM_P2
2022/03/31 05:04:11;;;;;;;26.10;20.98;;;8.40;95.80;;;;;;3974725;22;20715;-85
2022/03/31 05:42:57;;;;;;;29.92;21.83;;;8.80;94.60;;;;;;5066758;28;20201;-88
2022/03/31 05:45:52;;;;;;;25.13;19.98;;;8.80;95.20;;;;;;5068031;28;20228;-88
2022/03/31 05:48:32;;;;;;;23.90;19.20;;;8.90;94.90;;;;;;5049909;28;20202;-88
2022/03/31 05:51:00;;;;;;;23.45;18.35;;;8.90;94.50;;;;;;5059425;28;20739;-87
2022/03/31 05:53:27;;;;;;;24.98;19.52;;;8.90;94.60;;;;;;5085802;28;20283;-88
2022/03/31 05:55:55;;;;;;;23.98;18.95;;;8.90;94.50;;;;;;5084923;28;20229;-88
2022/03/31 05:58:22;;;;;;;25.50;19.63;;;9.00;94.40;;;;;;5058168;28;20213;-88
2022/03/31 06:00:52;;;;;;;24.63;20.25;;;9.00;94.30;;;;;;5061594;28;20230;-88
2022/03/31 06:03:21;;;;;;;25.60;19.25;;;9.00;94.50;;;;;;5054595;28;20202;-88
2022/03/31 06:05:48;;;;;;;26.58;20.48;;;9.00;94.50;;;;;;5059654;28;20225;-87
2022/03/31 06:08:18;;;;;;;24.23;18.83;;;9.00;95.00;;;;;;5057772;28;20213;-87
2022/03/31 06:10:45;;;;;;;22.88;19.33;;;9.10;94.40;;;;;;5047056;28;20243;-88
2022/03/31 06:15:55;;;;;;;26.80;19.80;;;9.20;94.20;;;;;;5059985;28;20232;-89
2022/03/31 06:18:24;;;;;;;26.15;20.23;;;9.40;93.80;;;;;;5057945;28;20257;-88
2022/03/31 06:32:56;;;;;;;27.90;20.52;;;9.10;93.90;;;;;;5053613;28;20205;-88
2022/03/31 06:35:23;;;;;;;27.65;21.02;;;9.20;94.30;;;;;;5051465;28;20233;-88
2022/03/31 06:37:54;;;;;;;28.00;21.33;;;9.30;93.50;;;;;;5072768;28;20853;-88
2022/03/31 06:40:21;;;;;;;28.13;21.42;;;9.20;94.00;;;;;;5072025;28;20297;-86
2022/03/31 06:42:50;;;;;;;31.02;21.73;;;9.20;93.50;;;;;;5087059;28;20209;-88
2022/03/31 06:45:21;;;;;;;25.73;21.75;;;9.20;93.50;;;;;;5084881;28;20237;-88
2022/03/31 06:47:48;;;;;;;29.08;20.85;;;9.20;94.30;;;;;;5081237;28;20193;-88
2022/03/31 06:50:15;;;;;;;30.15;22.40;;;9.10;93.60;;;;;;5081051;28;20243;-87
2022/03/31 06:52:43;;;;;;;29.30;21.73;;;8.90;93.90;;;;;;5074325;28;20713;-88
2022/03/31 06:55:10;;;;;;;28.13;23.27;;;8.80;94.30;;;;;;5043809;28;20266;-86
2022/03/31 06:57:38;;;;;;;24.05;20.80;;;8.80;94.60;;;;;;5078281;28;20198;-89
2022/03/31 07:00:07;;;;;;;23.17;20.05;;;9.10;94.80;;;;;;5079637;28;20785;-86
2022/03/31 07:02:36;;;;;;;24.88;20.02;;;9.30;93.50;;;;;;5074423;28;20197;-87
2022/03/31 07:05:04;;;;;;;27.55;21.63;;;9.40;93.30;;;;;;5074416;28;20821;-86
2022/03/31 07:14:25;;;;;;;25.58;20.52;;;10.00;92.00;;;;;;5084285;28;20192;-88
2022/03/31 07:16:52;;;;;;;28.52;20.33;;;10.50;90.40;;;;;;5079240;28;20201;-87
2022/03/31 07:19:21;;;;;;;27.67;21.98;;;10.60;89.90;;;;;;5077089;28;20201;-86
2022/03/31 07:22:11;;;;;;;28.58;22.75;;;10.30;89.40;;;;;;5082495;28;20220;-86
2022/03/31 07:24:38;;;;;;;27.98;22.23;;;10.30;90.40;;;;;;5086156;28;20332;-86
2022/03/31 07:27:05;;;;;;;29.75;23.05;;;10.30;90.30;;;;;;5080951;28;20204;-86
2022/03/31 07:29:32;;;;;;;28.38;22.60;;;10.30;90.40;;;;;;5059652;28;20320;-86
2022/03/31 07:32:06;;;;;;;26.90;22.17;;;10.30;89.50;;;;;;5053755;28;20205;-88
2022/03/31 07:34:39;;;;;;;28.35;23.10;;;10.30;90.20;;;;;;5060230;28;20252;-90
2022/03/31 07:37:07;;;;;;;25.95;21.27;;;10.20;90.60;;;;;;5061938;28;20212;-87
2022/03/31 07:39:35;;;;;;;27.55;21.70;;;10.20;89.60;;;;;;5045403;28;20206;-88
2022/03/31 07:42:06;;;;;;;28.27;20.63;;;10.10;90.00;;;;;;5065968;28;20190;-85
2022/03/31 07:44:33;;;;;;;26.20;20.55;;;10.20;88.30;;;;;;5062629;28;20234;-86
2022/03/31 07:57:32;;;;;;;26.63;21.27;;;10.00;90.30;;;;;;5064510;28;20194;-86
2022/03/31 07:59:59;;;;;;;27.67;19.98;;;10.00;90.30;;;;;;5039196;28;20202;-86
2022/03/31 08:02:26;;;;;;;26.25;21.13;;;10.30;90.00;;;;;;5052503;28;20701;-85
2022/03/31 08:04:54;;;;;;;25.55;20.08;;;10.50;87.00;;;;;;5063628;28;20228;-85
2022/03/31 08:07:22;;;;;;;27.13;20.77;;;10.60;86.30;;;;;;5064699;28;20209;-87
2022/03/31 08:09:49;;;;;;;25.88;20.92;;;10.90;84.20;;;;;;5065067;28;20257;-86
2022/03/31 08:12:18;;;;;;;26.33;20.50;;;11.20;82.80;;;;;;5058414;28;20202;-85
2022/03/31 08:14:47;;;;;;;26.42;21.40;;;11.40;80.20;;;;;;5065218;28;20312;-86
2022/03/31 08:17:14;;;;;;;25.30;20.50;;;11.40;78.70;;;;;;5065847;28;20269;-90
2022/03/31 08:19:57;;;;;;;24.83;20.35;;;11.50;77.50;;;;;;5053582;28;20236;-87
2022/03/31 08:34:39;;;;;;;25.73;20.90;;;11.90;75.20;;;;;;5058596;28;20252;-86
2022/03/31 08:37:07;;;;;;;25.27;20.90;;;11.80;75.00;;;;;;5064235;28;20269;-86
2022/03/31 08:39:41;;;;;;;23.75;19.63;;;11.90;75.10;;;;;;5063653;28;21004;-86
2022/03/31 08:42:09;;;;;;;24.70;20.40;;;12.00;75.10;;;;;;5063727;28;20711;-86
2022/03/31 08:44:49;;;;;;;26.60;20.20;;;12.00;69.80;;;;;;5063230;28;20642;-85
2022/03/31 08:47:19;;;;;;;25.48;19.45;;;11.90;73.60;;;;;;5052027;28;20197;-85
2022/03/31 08:49:47;;;;;;;24.73;20.20;;;11.80;75.00;;;;;;5064458;28;20321;-89
2022/03/31 08:52:15;;;;;;;24.05;19.90;;;11.90;75.10;;;;;;5063878;28;20205;-86
2022/03/31 08:54:48;;;;;;;25.83;19.45;;;11.80;75.00;;;;;;5052860;28;20296;-85
2022/03/31 08:57:15;;;;;;;26.10;19.55;;;11.80;75.00;;;;;;5050248;28;20568;-86
2022/03/31 08:59:46;;;;;;;21.48;17.63;;;11.80;75.00;;;;;;5047246;28;20241;-86
2022/03/31 09:02:32;;;;;;;28.90;18.52;;;11.80;73.80;;;;;;5046454;28;20284;-86
2022/03/31 09:05:04;;;;;;;24.67;19.50;;;11.70;74.70;;;;;;5047368;28;20325;-86
2022/03/31 09:07:31;;;;;;;27.05;20.83;;;11.70;75.00;;;;;;5058649;28;20206;-86
2022/03/31 09:09:58;;;;;;;25.88;20.13;;;11.70;73.80;;;;;;5060661;28;20244;-86
2022/03/31 09:12:27;;;;;;;25.73;19.58;;;11.60;74.80;;;;;;5063374;28;20237;-85
2022/03/31 09:14:55;;;;;;;27.88;20.48;;;11.50;74.80;;;;;;5052939;28;20233;-87
2022/03/31 09:20:20;;;;;;;23.25;19.05;;;11.50;76.80;;;;;;5056057;28;20241;-86
2022/03/31 09:22:59;;;;;;;27.25;20.08;;;11.70;74.60;;;;;;5038001;28;20263;-86
2022/03/31 09:25:28;;;;;;;27.02;19.05;;;11.70;72.90;;;;;;5058112;28;20229;-86
2022/03/31 09:28:12;;;;;;;26.35;19.80;;;11.80;72.40;;;;;;5065183;28;20228;-88
2022/03/31 09:30:48;;;;;;;26.80;20.15;;;12.00;70.00;;;;;;5061532;28;20213;-85
2022/03/31 09:33:48;;;;;;;25.98;20.25;;;12.10;69.10;;;;;;5046895;28;20557;-86
2022/03/31 09:36:18;;;;;;;27.17;19.63;;;11.90;70.40;;;;;;5035614;28;20257;-86
2022/03/31 09:38:54;;;;;;;26.35;21.13;;;11.90;71.30;;;;;;5065363;28;20201;-86
2022/03/31 09:41:37;;;;;;;25.88;20.00;;;11.90;71.00;;;;;;5047451;28;20233;-86
2022/03/31 09:44:25;;;;;;;24.10;19.63;;;12.20;68.90;;;;;;5045948;28;20261;-86
2022/03/31 09:46:54;;;;;;;26.52;19.48;;;12.40;67.00;;;;;;5062844;28;20206;-86
2022/03/31 09:49:23;;;;;;;26.95;21.60;;;12.10;67.80;;;;;;5064238;28;20232;-87
2022/03/31 09:51:53;;;;;;;29.23;21.63;;;11.30;74.50;;;;;;5063875;28;20234;-86
2022/03/31 09:54:23;;;;;;;25.77;21.02;;;11.60;75.70;;;;;;5054199;28;20205;-86
2022/03/31 09:57:00;;;;;;;26.27;19.95;;;11.60;74.90;;;;;;5060246;28;20596;-86
2022/03/31 09:59:31;;;;;;;23.67;20.10;;;11.80;72.90;;;;;;5064551;28;20217;-86
2022/03/31 10:01:59;;;;;;;24.75;20.10;;;12.00;70.50;;;;;;5059418;28;20210;-86
2022/03/31 10:04:27;;;;;;;26.13;20.55;;;11.90;69.10;;;;;;5044640;28;20208;-85
2022/03/31 10:06:57;;;;;;;24.60;19.10;;;11.40;74.00;;;;;;5037616;28;20237;-87
2022/03/31 10:09:25;;;;;;;25.83;19.88;;;11.70;72.10;;;;;;5049904;28;20284;-89
2022/03/31 10:11:59;;;;;;;23.25;19.25;;;11.50;73.00;;;;;;5040882;28;20227;-86
2022/03/31 10:14:33;;;;;;;24.48;17.83;;;11.40;74.60;;;;;;5048692;28;20290;-86
2022/03/31 10:17:03;;;;;;;20.98;17.33;;;11.70;71.60;;;;;;5048365;28;20256;-88
2022/03/31 10:19:32;;;;;;;22.83;19.17;;;11.80;69.00;;;;;;5049293;28;20236;-85
2022/03/31 10:24:41;;;;;;;24.23;18.42;;;11.10;74.30;;;;;;5062268;28;20261;-86
2022/03/31 10:25:01;;;;;;;23.00;17.90;;;11.20;74.30;;;;;;5054449;28;20229;-85
2022/03/31 10:27:30;;;;;;;23.45;18.20;;;11.40;74.60;;;;;;5066492;28;20226;-86
2022/03/31 10:30:08;;;;;;;23.73;18.70;;;11.60;71.60;;;;;;5061889;28;20240;-87
2022/03/31 10:32:36;;;;;;;22.40;18.17;;;11.70;69.80;;;;;;5066804;28;20225;-86
2022/03/31 10:35:06;;;;;;;26.13;18.83;;;11.70;71.80;;;;;;5056901;28;20517;-86
2022/03/31 10:37:38;;;;;;;26.50;20.42;;;11.60;72.80;;;;;;5054144;28;20297;-86
2022/03/31 10:40:09;;;;;;;24.02;19.65;;;11.30;74.50;;;;;;5055614;28;20229;-86
2022/03/31 10:42:37;;;;;;;21.98;19.13;;;11.30;74.50;;;;;;5067289;28;20649;-86
2022/03/31 10:45:09;;;;;;;27.48;19.58;;;11.40;74.60;;;;;;5065443;28;20225;-88
2022/03/31 10:47:39;;;;;;;23.48;18.00;;;11.40;74.60;;;;;;5066232;28;20281;-86
2022/03/31 10:50:08;;;;;;;22.75;17.90;;;11.50;73.10;;;;;;5062522;28;20233;-85
2022/03/31 10:52:37;;;;;;;25.05;20.55;;;11.40;72.40;;;;;;5057762;28;20197;-86
2022/03/31 10:55:09;;;;;;;25.90;19.55;;;11.40;74.60;;;;;;5059276;28;20233;-86
2022/03/31 10:57:42;;;;;;;24.95;19.92;;;11.60;74.80;;;;;;5070534;28;20225;-86
2022/03/31 11:00:15;;;;;;;26.70;19.88;;;11.60;74.90;;;;;;5063288;28;20234;-87
2022/03/31 11:02:44;;;;;;;26.08;19.70;;;11.70;75.00;;;;;;5068888;28;20201;-87
2022/03/31 11:05:12;;;;;;;23.83;18.42;;;11.80;74.00;;;;;;5057887;28;20234;-86
2022/03/31 11:11:21;;;;;;;25.42;19.50;;;11.40;74.60;;;;;;5072109;28;20704;-87
2022/03/31 11:13:49;;;;;;;26.95;19.63;;;11.70;75.00;;;;;;5066755;28;20218;-87
2022/03/31 11:19:38;;;;;;;26.13;20.25;;;11.80;73.30;;;;;;5047307;28;20226;-88
2022/03/31 11:22:07;;;;;;;27.83;20.23;;;11.80;75.00;;;;;;5066024;28;20233;-88
2022/03/31 11:24:35;;;;;;;25.42;19.85;;;11.90;70.60;;;;;;5063044;28;20236;-87
2022/03/31 11:27:03;;;;;;;31.02;20.95;;;12.10;69.80;;;;;;5068109;28;20209;-88
2022/03/31 11:29:31;;;;;;;25.33;20.35;;;12.00;69.80;;;;;;5068488;28;20230;-87
2022/03/31 11:31:58;;;;;;;26.40;20.45;;;11.90;72.00;;;;;;5065209;28;20198;-86
2022/03/31 11:34:27;;;;;;;26.60;21.60;;;11.90;71.30;;;;;;5062789;28;20212;-86
2022/03/31 11:36:57;;;;;;;27.38;21.08;;;11.40;74.70;;;;;;5066001;28;20556;-86
2022/03/31 11:39:28;;;;;;;25.17;21.02;;;11.50;74.70;;;;;;5065234;28;20259;-85
2022/03/31 11:41:57;;;;;;;28.08;21.50;;;11.80;75.00;;;;;;5064296;28;20221;-85
2022/03/31 11:44:26;;;;;;;29.10;22.42;;;11.40;76.10;;;;;;5064055;28;20202;-85
2022/03/31 11:46:53;;;;;;;28.23;22.30;;;11.50;76.40;;;;;;5058938;28;20224;-85
2022/03/31 11:49:23;;;;;;;27.27;21.15;;;11.40;78.60;;;;;;5062356;28;20260;-84
2022/03/31 11:51:52;;;;;;;26.80;21.15;;;11.00;79.00;;;;;;5064275;28;20236;-84
2022/03/31 11:54:20;;;;;;;26.98;20.02;;;10.90;81.10;;;;;;5062220;28;20281;-86
2022/03/31 11:56:48;;;;;;;24.83;20.08;;;11.30;78.90;;;;;;5045582;28;20217;-87
2022/03/31 11:59:15;;;;;;;27.10;20.65;;;11.50;75.80;;;;;;5040291;28;20198;-87
2022/03/31 12:01:46;;;;;;;26.65;20.55;;;11.60;76.50;;;;;;5060744;28;20285;-87
2022/03/31 12:04:20;;;;;;;26.25;19.25;;;11.00;80.00;;;;;;5061014;28;20193;-88
2022/03/31 12:06:49;;;;;;;27.52;19.75;;;11.20;79.10;;;;;;5063696;28;20221;-87
2022/03/31 12:09:17;;;;;;;23.17;19.10;;;11.50;77.70;;;;;;5064746;28;20213;-90
2022/03/31 12:11:46;;;;;;;23.70;18.85;;;11.70;75.80;;;;;;5057891;28;20199;-86
2022/03/31 12:14:15;;;;;;;24.77;18.75;;;11.80;74.10;;;;;;5063134;28;20216;-88
2022/03/31 12:16:56;;;;;;;23.85;18.13;;;11.90;74.10;;;;;;5065533;28;20216;-88
2022/03/31 12:19:26;;;;;;;22.77;17.75;;;12.10;71.50;;;;;;5065123;28;20273;-87
2022/03/31 12:21:56;;;;;;;21.70;17.15;;;12.10;67.90;;;;;;5068643;28;20202;-89
2022/03/31 12:24:24;;;;;;;23.42;17.73;;;12.30;67.50;;;;;;5070203;28;20269;-87
2022/03/31 12:27:18;;;;;;;23.65;18.77;;;12.20;68.20;;;;;;5066523;28;20223;-87
2022/03/31 12:29:47;;;;;;;24.40;17.73;;;11.90;71.50;;;;;;5058754;28;20294;-86
2022/03/31 12:32:17;;;;;;;23.48;17.80;;;11.60;72.20;;;;;;5044180;28;20263;-86
2022/03/31 12:34:55;;;;;;;24.38;17.67;;;11.50;74.70;;;;;;5048027;28;20732;-87
2022/03/31 12:37:32;;;;;;;24.40;17.10;;;11.40;74.60;;;;;;5064571;28;20212;-85
2022/03/31 12:40:38;;;;;;;22.65;16.98;;;11.30;74.40;;;;;;5072195;28;20287;-86
2022/03/31 12:43:06;;;;;;;22.33;16.77;;;11.50;74.70;;;;;;5059251;28;20229;-87
2022/03/31 12:45:36;;;;;;;23.30;16.58;;;11.60;74.90;;;;;;5051884;28;20238;-89
2022/03/31 12:51:03;;;;;;;21.77;16.48;;;12.00;68.60;;;;;;5046983;28;20191;-88
2022/03/31 12:57:01;;;;;;;19.48;14.63;;;12.00;68.30;;;;;;5043057;28;20185;-88
2022/03/31 13:02:59;;;;;;;18.58;14.35;;;11.80;65.90;;;;;;5034004;28;20187;-87
2022/03/31 13:09:46;;;;;;;20.90;14.68;;;12.00;68.80;;;;;;5048691;28;20249;-88
2022/03/31 13:15:59;;;;;;;20.55;14.38;;;11.60;71.00;;;;;;5057548;28;20189;-88
2022/03/31 13:18:35;;;;;;;19.25;14.25;;;12.00;69.00;;;;;;5030939;28;20270;-88
2022/03/31 13:34:17;;;;;;;20.85;15.05;;;12.00;69.80;;;;;;5127784;23;20237;-88
2022/03/31 13:40:06;;;;;;;18.80;14.65;;;12.20;65.60;;;;;;5040138;28;20217;-87
2022/03/31 13:45:34;;;;;;;22.88;16.02;;;12.00;66.30;;;;;;5042989;28;20222;-89
2022/03/31 13:48:03;;;;;;;20.50;15.00;;;12.10;67.50;;;;;;5045633;28;20230;-87
2022/03/31 14:06:30;;;;;;;21.10;14.65;;;12.20;65.00;;;;;;4962176;29;20232;-88
2022/03/31 14:09:02;;;;;;;18.55;13.63;;;12.00;66.90;;;;;;5038700;28;20277;-89
2022/03/31 14:35:21;;;;;;;16.77;10.05;;;11.70;67.40;;;;;;5067618;28;20232;-85
2022/03/31 14:37:48;;;;;;;16.00;9.48;;;11.80;62.90;;;;;;5066056;28;20605;-86
2022/03/31 14:47:19;;;;;;;15.93;9.77;;;12.00;61.40;;;;;;4906291;28;20246;-86
2022/03/31 14:53:34;;;;;;;13.63;10.18;;;12.20;58.50;;;;;;4955511;28;20210;-85
2022/03/31 14:56:02;;;;;;;15.93;9.93;;;11.80;60.10;;;;;;4958928;28;20368;-86
2022/03/31 15:02:10;;;;;;;15.63;10.05;;;12.20;59.80;;;;;;5064091;28;20216;-89
2022/03/31 15:08:22;;;;;;;15.55;11.02;;;12.40;59.40;;;;;;5063608;28;20209;-87
2022/03/31 15:14:32;;;;;;;19.75;12.10;;;12.10;63.30;;;;;;5068022;28;20212;-87
2022/03/31 15:17:15;;;;;;;19.02;11.65;;;12.00;62.70;;;;;;5066133;28;20232;-88
2022/03/31 15:22:56;;;;;;;20.17;13.00;;;11.90;65.90;;;;;;5066884;28;20212;-87
2022/03/31 15:25:27;;;;;;;18.83;13.13;;;12.00;66.40;;;;;;5066644;28;20233;-87
2022/03/31 15:31:13;;;;;;;17.38;12.10;;;11.90;66.60;;;;;;5037958;28;20260;-87
2022/03/31 15:33:44;;;;;;;19.92;14.00;;;11.50;69.90;;;;;;5066975;28;20232;-87
2022/03/31 15:39:45;;;;;;;17.17;13.20;;;11.40;74.60;;;;;;5057423;28;20202;-87
2022/03/31 15:42:34;;;;;;;18.77;12.75;;;11.40;74.60;;;;;;5027686;28;20217;-88
2022/03/31 15:45:11;;;;;;;20.33;12.70;;;11.60;74.90;;;;;;5063117;28;20680;-87
2022/03/31 15:54:12;;;;;;;20.70;11.88;;;11.50;74.70;;;;;;4978547;28;20216;-86
2022/03/31 16:20:12;;;;;;;16.17;10.98;;;11.30;73.00;;;;;;4992656;28;20635;-89
2022/03/31 16:58:14;;;;;;;21.15;15.80;;;9.90;88.70;;;;;;5026879;28;20194;-87
2022/03/31 17:00:44;;;;;;;22.55;16.52;;;9.70;90.60;;;;;;5014526;28;20250;-87
2022/03/31 17:03:12;;;;;;;23.35;17.40;;;9.50;90.60;;;;;;4985391;28;20196;-88
2022/03/31 17:09:45;;;;;;;25.52;17.38;;;9.40;91.80;;;;;;5017143;28;20205;-86
2022/03/31 17:12:59;;;;;;;24.77;18.13;;;9.20;92.60;;;;;;5011833;28;20204;-86
2022/03/31 17:15:32;;;;;;;24.55;17.80;;;9.10;93.50;;;;;;5026562;28;20202;-87
2022/03/31 17:18:02;;;;;;;24.58;18.30;;;8.90;94.30;;;;;;5021693;28;20195;-89
2022/03/31 17:23:18;;;;;;;26.58;19.73;;;8.80;95.90;;;;;;5011846;28;20210;-87
2022/03/31 17:25:45;;;;;;;26.00;19.73;;;8.70;96.20;;;;;;5033041;28;20240;-89
2022/03/31 17:28:50;;;;;;;27.88;20.30;;;8.50;96.80;;;;;;5028814;28;20294;-88
2022/03/31 17:31:20;;;;;;;27.77;18.63;;;8.50;97.80;;;;;;5005513;28;20242;-88
2022/03/31 17:33:50;;;;;;;28.75;20.58;;;8.50;98.10;;;;;;5016500;28;20183;-88
2022/03/31 17:40:37;;;;;;;28.30;19.73;;;8.50;98.00;;;;;;5024099;28;20226;-87
2022/03/31 17:46:27;;;;;;;27.83;19.65;;;8.40;98.90;;;;;;5012363;28;20219;-84
2022/03/31 17:49:12;;;;;;;29.10;20.33;;;8.40;99.00;;;;;;5024807;28;20615;-85
2022/03/31 17:51:39;;;;;;;27.83;20.27;;;8.30;99.30;;;;;;5024276;28;20227;-85
2022/03/31 17:54:06;;;;;;;29.02;20.88;;;8.20;99.70;;;;;;5023905;28;20207;-88
2022/03/31 17:56:36;;;;;;;29.77;20.67;;;8.20;99.80;;;;;;5019511;28;20354;-88
2022/03/31 17:59:04;;;;;;;27.65;20.58;;;8.20;99.90;;;;;;5023015;28;20211;-88
2022/03/31 18:01:32;;;;;;;29.58;21.05;;;8.20;99.90;;;;;;5022717;28;20301;-87
2022/03/31 18:04:06;;;;;;;29.20;21.15;;;8.10;99.90;;;;;;5020749;28;20208;-90
2022/03/31 18:06:34;;;;;;;29.15;21.48;;;8.10;99.90;;;;;;5019796;28;20219;-90
2022/03/31 18:09:05;;;;;;;27.70;20.27;;;8.10;99.90;;;;;;5006158;28;20234;-89
2022/03/31 18:11:32;;;;;;;29.52;20.33;;;8.10;99.90;;;;;;5019295;28;20231;-87
2022/03/31 18:14:00;;;;;;;27.73;20.40;;;8.00;99.90;;;;;;5001134;28;20262;-89
2022/03/31 18:16:30;;;;;;;29.90;21.40;;;8.00;99.90;;;;;;4998164;28;20226;-89
2022/03/31 18:18:59;;;;;;;33.90;22.23;;;8.00;99.90;;;;;;5015992;28;20196;-89
2022/03/31 18:21:29;;;;;;;32.30;21.20;;;7.90;99.90;;;;;;4999420;28;20225;-88
2022/03/31 18:23:56;;;;;;;30.07;21.20;;;7.90;99.90;;;;;;5015145;28;20199;-88
2022/03/31 18:26:25;;;;;;;32.30;20.98;;;7.90;99.90;;;;;;5002201;28;20227;-89
2022/03/31 18:28:56;;;;;;;33.55;20.88;;;7.90;99.90;;;;;;5016358;28;20254;-88
2022/03/31 18:34:10;;;;;;;32.55;22.75;;;7.90;99.90;;;;;;5026419;28;20258;-88
2022/03/31 18:36:39;;;;;;;32.80;22.98;;;7.90;99.90;;;;;;5018665;28;20223;-88
2022/03/31 18:39:09;;;;;;;33.80;22.17;;;7.90;99.90;;;;;;5030902;28;20211;-88
2022/03/31 18:41:36;;;;;;;28.27;20.93;;;7.80;99.90;;;;;;5024144;28;20219;-88
2022/03/31 18:44:04;;;;;;;29.23;21.00;;;7.80;99.90;;;;;;5025539;28;20211;-92
2022/03/31 18:46:41;;;;;;;29.17;21.10;;;7.90;99.90;;;;;;5023690;28;20254;-89
2022/03/31 18:49:11;;;;;;;33.30;21.77;;;7.90;99.90;;;;;;5019181;28;20210;-89
2022/03/31 18:51:42;;;;;;;31.15;20.75;;;7.90;99.90;;;;;;5001897;28;20235;-87
2022/03/31 18:54:13;;;;;;;29.27;20.27;;;7.90;99.90;;;;;;5024212;28;20203;-88
2022/03/31 18:56:42;;;;;;;31.17;20.03;;;7.90;99.90;;;;;;5023552;28;20220;-89
2022/03/31 18:59:09;;;;;;;29.77;21.40;;;7.90;99.90;;;;;;5026341;28;20200;-89
2022/03/31 19:01:36;;;;;;;28.93;20.13;;;7.80;99.90;;;;;;5023522;28;20591;-88
2022/03/31 19:04:04;;;;;;;32.75;20.95;;;7.90;99.90;;;;;;5004845;28;20211;-89
2022/03/31 19:09:17;;;;;;;30.15;20.48;;;7.70;99.90;;;;;;5026216;28;20206;-90
2022/03/31 19:11:47;;;;;;;30.85;20.58;;;7.80;99.90;;;;;;5031819;28;20195;-89
2022/03/31 19:14:15;;;;;;;32.78;22.25;;;7.80;99.90;;;;;;5027806;28;20206;-89
2022/03/31 19:16:44;;;;;;;31.90;21.00;;;7.70;99.90;;;;;;5017963;28;20230;-91
2022/03/31 19:19:11;;;;;;;29.53;20.70;;;7.70;99.90;;;;;;5027253;28;20212;-89
2022/03/31 19:21:41;;;;;;;28.83;20.23;;;7.70;99.90;;;;;;4985540;28;20237;-89
2022/03/31 19:24:11;;;;;;;34.45;21.88;;;7.70;99.90;;;;;;5010736;28;20203;-89
2022/03/31 19:26:45;;;;;;;32.10;21.07;;;7.70;99.90;;;;;;5010051;28;20287;-91
2022/03/31 19:29:14;;;;;;;33.63;21.50;;;7.70;99.90;;;;;;5017829;28;20227;-90
2022/03/31 19:31:45;;;;;;;30.75;20.75;;;7.70;99.90;;;;;;5005973;28;20234;-89
2022/03/31 19:34:15;;;;;;;31.13;19.73;;;7.70;99.90;;;;;;5029562;28;20207;-89
2022/03/31 19:36:55;;;;;;;29.88;20.42;;;7.70;99.90;;;;;;5027582;28;20629;-89
2022/03/31 19:39:22;;;;;;;32.47;20.60;;;7.70;99.90;;;;;;5020854;28;20211;-89
2022/03/31 19:41:49;;;;;;;31.23;19.50;;;7.70;99.90;;;;;;5026262;28;20298;-89
2022/03/31 19:44:16;;;;;;;28.27;18.70;;;7.60;99.90;;;;;;5006765;28;20238;-89
2022/03/31 19:46:43;;;;;;;30.43;20.00;;;7.70;99.90;;;;;;5028535;28;20306;-89
2022/03/31 19:49:17;;;;;;;28.60;18.63;;;7.60;99.90;;;;;;5029565;28;20230;-89
2022/03/31 19:54:33;;;;;;;30.47;20.33;;;7.50;99.90;;;;;;5024666;28;21036;-90
2022/03/31 19:57:10;;;;;;;30.73;20.03;;;7.50;99.90;;;;;;5015743;28;20207;-90
2022/03/31 19:59:43;;;;;;;28.90;19.85;;;7.50;99.90;;;;;;5031693;28;20240;-90
2022/03/31 20:02:10;;;;;;;29.33;20.53;;;7.60;99.90;;;;;;5023700;28;20262;-90
2022/03/31 20:04:37;;;;;;;29.03;19.30;;;7.60;99.90;;;;;;5025840;28;20231;-90
2022/03/31 20:09:47;;;;;;;29.50;20.45;;;7.50;99.90;;;;;;5031872;28;20218;-91
2022/03/31 20:12:14;;;;;;;28.45;19.60;;;7.60;99.90;;;;;;5018607;28;20203;-88
2022/03/31 20:14:44;;;;;;;30.33;19.35;;;7.60;99.90;;;;;;5021451;28;20226;-90
2022/03/31 20:17:11;;;;;;;28.85;18.65;;;7.60;99.90;;;;;;5022764;28;20202;-88
2022/03/31 20:19:40;;;;;;;28.00;18.60;;;7.60;99.90;;;;;;5014085;28;20261;-90
2022/03/31 20:22:10;;;;;;;25.13;17.90;;;7.70;99.90;;;;;;5005866;28;20235;-89
2022/03/31 20:24:38;;;;;;;28.38;19.13;;;7.60;99.90;;;;;;5024514;28;20244;-89
2022/03/31 20:27:07;;;;;;;26.07;18.60;;;7.60;99.90;;;;;;5024962;28;20227;-89
2022/03/31 20:29:34;;;;;;;26.70;18.90;;;7.60;99.90;;;;;;5003822;28;20196;-89
2022/03/31 20:32:02;;;;;;;27.53;18.83;;;7.60;99.90;;;;;;5031251;28;20652;-89
2022/03/31 20:34:32;;;;;;;25.98;17.95;;;7.60;99.90;;;;;;5024380;28;20206;-90
2022/03/31 20:37:00;;;;;;;25.80;18.80;;;7.60;99.90;;;;;;5023538;28;20225;-90
2022/03/31 20:39:31;;;;;;;23.73;17.23;;;7.60;99.90;;;;;;5026017;28;20219;-91
2022/03/31 20:41:59;;;;;;;25.43;17.50;;;7.60;99.90;;;;;;5020453;28;20207;-89
2022/03/31 20:44:34;;;;;;;24.67;17.97;;;7.60;99.90;;;;;;5024903;28;20214;-89
2022/03/31 20:47:01;;;;;;;25.30;17.73;;;7.60;99.90;;;;;;5029650;28;20297;-91
2022/03/31 20:49:29;;;;;;;28.70;19.60;;;7.60;99.90;;;;;;5025861;28;20225;-90
2022/03/31 20:52:03;;;;;;;28.37;18.80;;;7.60;99.90;;;;;;5015401;28;20198;-91
2022/03/31 20:54:42;;;;;;;25.67;18.10;;;7.70;99.90;;;;;;5024159;28;20295;-91
2022/03/31 20:57:17;;;;;;;25.93;18.33;;;7.60;99.90;;;;;;5031169;28;20178;-89
2022/03/31 20:59:53;;;;;;;25.02;17.95;;;7.60;99.90;;;;;;5030556;28;20223;-89
2022/03/31 21:02:25;;;;;;;22.65;16.67;;;7.60;99.90;;;;;;5018579;28;20222;-91
2022/03/31 21:04:55;;;;;;;25.52;17.95;;;7.60;99.90;;;;;;5025495;28;20346;-90
2022/03/31 21:07:23;;;;;;;25.57;17.97;;;7.70;99.90;;;;;;5025378;28;20250;-89
2022/03/31 21:12:34;;;;;;;23.25;16.58;;;7.60;99.90;;;;;;5019758;28;20210;-89
2022/03/31 21:15:02;;;;;;;23.55;15.48;;;7.60;99.90;;;;;;5023923;28;20258;-90
2022/03/31 21:17:34;;;;;;;21.65;16.15;;;7.60;99.90;;;;;;5022687;28;20267;-89
2022/03/31 21:20:03;;;;;;;21.00;16.05;;;7.60;99.90;;;;;;5024929;28;20238;-89
2022/03/31 21:22:30;;;;;;;22.33;15.73;;;7.70;99.90;;;;;;5026093;28;20203;-90
2022/03/31 21:25:00;;;;;;;20.67;15.80;;;7.70;99.90;;;;;;5022281;28;20282;-90
2022/03/31 21:27:32;;;;;;;19.60;15.45;;;7.70;99.90;;;;;;5024194;28;20255;-89
2022/03/31 21:30:01;;;;;;;21.20;16.13;;;7.70;99.90;;;;;;5022790;28;20235;-89
2022/03/31 21:32:28;;;;;;;19.80;15.60;;;7.70;99.90;;;;;;5014388;28;20271;-89
2022/03/31 21:34:55;;;;;;;21.40;15.93;;;7.70;99.90;;;;;;5023967;28;20291;-89
2022/03/31 21:37:23;;;;;;;20.20;15.67;;;7.70;99.90;;;;;;5029966;28;20203;-89
2022/03/31 21:39:50;;;;;;;19.17;14.57;;;7.60;99.90;;;;;;4994660;28;20218;-88
2022/03/31 21:42:19;;;;;;;19.52;14.95;;;7.70;99.90;;;;;;5007671;28;20202;-88
2022/03/31 21:44:47;;;;;;;20.58;15.77;;;7.70;99.90;;;;;;5021649;28;20584;-88
2022/03/31 21:47:15;;;;;;;19.73;15.93;;;7.70;99.90;;;;;;5029640;28;20198;-88
2022/03/31 21:49:42;;;;;;;19.67;15.43;;;7.70;99.90;;;;;;5023536;28;20286;-89
2022/03/31 21:52:10;;;;;;;20.50;15.88;;;7.60;99.90;;;;;;5012069;28;20203;-88
2022/03/31 21:54:36;;;;;;;19.73;14.73;;;7.60;99.90;;;;;;5004943;28;20203;-89
2022/03/31 21:57:05;;;;;;;18.70;14.48;;;7.70;99.90;;;;;;5009221;28;20270;-88
2022/03/31 21:59:34;;;;;;;29.83;21.20;;;7.70;99.90;;;;;;5004606;28;20204;-88
2022/03/31 22:02:02;;;;;;;21.20;15.98;;;7.60;99.90;;;;;;5000608;28;20636;-89
2022/03/31 22:04:29;;;;;;;21.75;16.02;;;7.60;99.90;;;;;;5019624;28;20303;-89
2022/03/31 22:06:57;;;;;;;21.03;16.07;;;7.60;99.90;;;;;;5018275;28;20208;-89
2022/03/31 22:12:10;;;;;;;18.83;14.43;;;7.50;99.90;;;;;;5016838;28;20707;-88
2022/03/31 22:17:27;;;;;;;17.70;13.90;;;7.50;99.90;;;;;;5019276;28;20191;-88
2022/03/31 22:19:54;;;;;;;19.48;14.20;;;7.50;99.90;;;;;;5026021;28;20226;-88
2022/03/31 22:22:22;;;;;;;17.50;13.27;;;7.50;99.90;;;;;;5032835;28;20226;-89
2022/03/31 22:24:49;;;;;;;17.73;13.20;;;7.50;99.90;;;;;;5019576;28;20226;-88
2022/03/31 22:27:20;;;;;;;15.88;13.63;;;7.50;99.90;;;;;;5018971;28;20739;-88
2022/03/31 22:29:51;;;;;;;18.50;12.73;;;7.40;99.90;;;;;;5018067;28;20248;-88
2022/03/31 22:32:18;;;;;;;17.13;13.57;;;7.40;99.90;;;;;;5029705;28;20191;-88
2022/03/31 22:34:46;;;;;;;16.97;14.13;;;7.40;99.90;;;;;;5014383;28;20715;-89
2022/03/31 22:37:13;;;;;;;17.30;13.50;;;7.40;99.90;;;;;;5017253;28;20290;-88
2022/03/31 22:39:41;;;;;;;16.40;13.50;;;7.40;99.90;;;;;;5014373;28;20245;-88
2022/03/31 22:42:12;;;;;;;17.43;13.73;;;7.50;99.90;;;;;;5020886;28;20303;-89
2022/03/31 22:44:39;;;;;;;17.63;14.25;;;7.50;99.90;;;;;;5020327;28;20227;-89
2022/03/31 22:47:08;;;;;;;16.70;13.65;;;7.60;99.90;;;;;;5028191;28;20659;-88
2022/03/31 22:49:36;;;;;;;16.48;13.63;;;7.60;99.90;;;;;;5017873;28;20699;-88
2022/03/31 22:52:04;;;;;;;17.90;13.75;;;7.60;99.90;;;;;;5013338;28;20207;-88